createdAt,value
2022-08-22T00:00:21.340Z,14.18
2022-08-22T00:02:47.468Z,20.52
2022-08-22T00:02:53.143Z,18.53
2022-08-22T00:03:03.718Z,15.80
2022-08-22T00:06:12.607Z,14.22
2022-08-22T00:08:57.606Z,14.05
2022-08-22T00:11:58.061Z,13.96
2022-08-22T00:14:45.251Z,13.99
2022-08-22T00:17:11.941Z,14.06
2022-08-22T00:19:49.998Z,14.07
2022-08-22T00:22:49.042Z,14.01
2022-08-22T00:25:50.352Z,13.78
2022-08-22T00:28:24.849Z,13.83
2022-08-22T00:31:27.201Z,13.77
2022-08-22T00:34:22.812Z,13.67
2022-08-22T00:37:34.188Z,13.74
2022-08-22T00:40:34.498Z,13.88
2022-08-22T00:43:09.872Z,13.81
2022-08-22T00:45:58.313Z,13.66
2022-08-22T00:48:43.371Z,13.57
2022-08-22T00:51:34.302Z,13.56
2022-08-22T00:54:17.523Z,13.69
2022-08-22T00:57:06.724Z,13.64
2022-08-22T01:00:22.609Z,13.75
2022-08-22T01:03:49.030Z,13.68
2022-08-22T01:06:18.435Z,13.71
2022-08-22T01:09:10.193Z,13.68
2022-08-22T01:11:54.822Z,13.63
2022-08-22T01:15:16.764Z,13.59
2022-08-22T01:18:23.494Z,13.62
2022-08-22T01:21:36.217Z,13.57
2022-08-22T01:24:26.535Z,13.49
2022-08-22T01:27:14.604Z,13.44
2022-08-22T01:30:05.942Z,13.28
2022-08-22T01:32:56.863Z,13.22
2022-08-22T01:35:37.957Z,13.19
2022-08-22T01:39:03.747Z,13.17
2022-08-22T01:42:00.413Z,13.21
2022-08-22T01:45:25.798Z,13.22
2022-08-22T01:48:12.005Z,13.25
2022-08-22T01:51:17.566Z,13.28
2022-08-22T01:54:31.192Z,13.21
2022-08-22T01:57:05.449Z,13.14
2022-08-22T01:59:43.823Z,13.29
2022-08-22T02:02:13.406Z,13.28
2022-08-22T02:04:53.458Z,13.27
2022-08-22T02:07:58.588Z,13.30
2022-08-22T02:10:58.070Z,13.25
2022-08-22T02:13:33.621Z,13.23
2022-08-22T02:16:33.728Z,13.24
2022-08-22T02:19:15.041Z,13.25
2022-08-22T02:22:10.111Z,13.22
2022-08-22T02:25:04.508Z,13.04
2022-08-22T02:27:46.820Z,13.03
2022-08-22T02:30:29.133Z,13.07
2022-08-22T02:33:10.310Z,13.14
2022-08-22T02:35:54.589Z,13.09
2022-08-22T02:38:25.420Z,13.12
2022-08-22T02:41:10.789Z,13.15
2022-08-22T02:43:44.522Z,13.12
2022-08-22T02:46:23.413Z,13.08
2022-08-22T02:49:06.600Z,12.99
2022-08-22T02:52:24.450Z,12.84
2022-08-22T02:55:06.854Z,12.74
2022-08-22T02:57:39.871Z,12.75
2022-08-22T03:00:32.688Z,12.86
2022-08-22T03:03:03.435Z,12.82
2022-08-22T03:06:01.731Z,12.70
2022-08-22T03:09:20.618Z,12.77
2022-08-22T03:12:03.713Z,12.75
2022-08-22T03:14:50.551Z,12.74
2022-08-22T03:17:33.939Z,12.77
2022-08-22T03:20:10.076Z,12.87
2022-08-22T03:22:54.690Z,12.75
2022-08-22T03:25:46.357Z,12.76
2022-08-22T03:28:31.674Z,12.64
2022-08-22T03:31:23.367Z,12.61
2022-08-22T03:34:26.540Z,12.62
2022-08-22T03:37:16.089Z,12.67
2022-08-22T03:39:51.516Z,12.70
2022-08-22T03:42:52.084Z,12.78
2022-08-22T03:46:14.098Z,12.84
2022-08-22T03:49:24.791Z,12.84
2022-08-22T03:52:31.954Z,12.81
2022-08-22T03:55:46.977Z,12.71
2022-08-22T03:59:00.109Z,12.63
2022-08-22T04:01:51.193Z,12.57
2022-08-22T04:04:45.851Z,12.65
2022-08-22T04:07:55.917Z,12.51
2022-08-22T04:10:56.697Z,12.41
2022-08-22T04:14:06.390Z,12.12
2022-08-22T04:17:05.759Z,12.10
2022-08-22T04:19:47.986Z,12.02
2022-08-22T04:22:49.752Z,11.90
2022-08-22T04:25:49.746Z,11.79
2022-08-22T04:28:36.407Z,11.88
2022-08-22T04:31:17.738Z,11.90
2022-08-22T04:34:00.889Z,11.88
2022-08-22T04:37:17.011Z,11.84
2022-08-22T04:40:27.834Z,11.93
2022-08-22T04:43:03.716Z,11.91
2022-08-22T04:45:42.327Z,11.88
2022-08-22T04:49:03.208Z,11.92
2022-08-22T04:51:36.442Z,11.94
2022-08-22T04:54:36.665Z,11.99
2022-08-22T04:57:36.386Z,11.94
2022-08-22T05:00:09.467Z,11.97
2022-08-22T05:02:40.590Z,11.98
2022-08-22T05:05:15.302Z,12.05
2022-08-22T05:07:53.686Z,12.10
2022-08-22T05:10:28.742Z,12.02
2022-08-22T05:13:06.725Z,12.05
2022-08-22T05:15:38.002Z,12.04
2022-08-22T05:18:11.338Z,12.12
2022-08-22T05:20:41.988Z,12.17
2022-08-22T05:23:43.579Z,12.13
2022-08-22T05:26:12.965Z,12.09
2022-08-22T05:28:52.964Z,12.19
2022-08-22T05:31:35.725Z,12.14
2022-08-22T05:34:07.326Z,12.27
2022-08-22T05:36:48.058Z,12.37
2022-08-22T05:39:22.281Z,12.41
2022-08-22T05:42:02.163Z,12.47
2022-08-22T05:44:38.195Z,12.40
2022-08-22T05:47:24.895Z,12.43
2022-08-22T05:50:05.985Z,12.37
2022-08-22T05:53:16.157Z,12.51
2022-08-22T05:56:04.013Z,12.47
2022-08-22T05:58:39.707Z,12.48
2022-08-22T06:01:37.955Z,12.54
2022-08-22T06:04:35.846Z,12.68
2022-08-22T06:07:13.223Z,12.70
2022-08-22T06:09:48.716Z,12.78
2022-08-22T06:12:22.319Z,12.84
2022-08-22T06:15:17.062Z,12.96
2022-08-22T06:17:51.862Z,13.00
2022-08-22T06:20:28.638Z,13.11
2022-08-22T06:22:59.669Z,13.10
2022-08-22T06:25:32.740Z,13.32
2022-08-22T06:28:09.032Z,13.35
2022-08-22T06:30:39.647Z,13.50
2022-08-22T06:33:12.987Z,13.69
2022-08-22T06:36:31.931Z,13.88
2022-08-22T06:39:26.132Z,13.99
2022-08-22T06:42:19.711Z,14.20
2022-08-22T06:45:09.101Z,14.37
2022-08-22T06:47:53.569Z,14.48
2022-08-22T06:50:46.129Z,14.52
2022-08-22T06:53:26.083Z,14.66
2022-08-22T06:55:57.457Z,14.81
2022-08-22T06:58:34.123Z,14.94
2022-08-22T07:01:11.781Z,15.01
2022-08-22T07:03:50.239Z,15.18
2022-08-22T07:06:28.948Z,15.32
2022-08-22T07:08:56.663Z,15.52
2022-08-22T07:11:40.314Z,15.65
2022-08-22T07:14:12.166Z,15.90
2022-08-22T07:16:55.245Z,16.13
2022-08-22T07:19:26.280Z,16.29
2022-08-22T07:21:53.413Z,16.53
2022-08-22T07:24:26.160Z,16.66
2022-08-22T07:27:26.673Z,16.90
2022-08-22T07:30:04.254Z,17.10
2022-08-22T07:32:42.149Z,17.34
2022-08-22T07:35:42.057Z,17.58
2022-08-22T07:38:42.737Z,17.79
2022-08-22T07:41:22.103Z,17.99
2022-08-22T07:44:23.523Z,18.31
2022-08-22T07:47:12.456Z,18.48
2022-08-22T07:49:51.646Z,18.61
2022-08-22T07:52:20.032Z,18.82
2022-08-22T07:55:17.381Z,19.06
2022-08-22T07:58:16.137Z,19.29
2022-08-22T08:00:49.265Z,19.48
2022-08-22T08:03:17.365Z,19.55
2022-08-22T08:05:45.328Z,19.85
2022-08-22T08:08:25.373Z,20.06
2022-08-22T08:10:56.394Z,20.26
2022-08-22T08:13:36.990Z,20.49
2022-08-22T08:16:10.418Z,20.67
2022-08-22T08:18:39.543Z,20.84
2022-08-22T08:21:10.929Z,21.10
2022-08-22T08:23:46.166Z,21.35
2022-08-22T08:26:23.114Z,21.48
2022-08-22T08:28:53.530Z,21.54
2022-08-22T08:31:35.470Z,21.77
2022-08-22T08:34:18.758Z,22.00
2022-08-22T08:36:55.477Z,21.97
2022-08-22T08:39:40.370Z,22.19
2022-08-22T08:43:02.786Z,22.35
2022-08-22T08:46:17.215Z,22.53
2022-08-22T08:49:24.150Z,22.67
2022-08-22T08:52:05.931Z,22.74
2022-08-22T08:54:58.393Z,22.90
2022-08-22T08:57:54.281Z,23.00
2022-08-22T09:00:42.987Z,23.02
2022-08-22T09:03:36.042Z,23.38
2022-08-22T09:06:34.454Z,23.63
2022-08-22T09:09:32.078Z,23.80
2022-08-22T09:12:17.127Z,23.78
2022-08-22T09:15:25.782Z,23.84
2022-08-22T09:18:34.202Z,24.05
2022-08-22T09:21:16.990Z,24.31
2022-08-22T09:24:34.087Z,24.69
2022-08-22T09:27:09.015Z,24.91
2022-08-22T09:29:57.048Z,24.93
2022-08-22T09:32:52.820Z,24.99
2022-08-22T09:35:44.546Z,25.13
2022-08-22T09:38:48.259Z,25.32
2022-08-22T09:41:40.547Z,25.50
2022-08-22T09:44:45.842Z,25.89
2022-08-22T09:47:47.507Z,26.13
2022-08-22T09:50:22.264Z,25.86
2022-08-22T09:53:33.510Z,25.46
2022-08-22T09:56:29.233Z,25.74
2022-08-22T09:59:18.866Z,26.11
2022-08-22T10:01:56.985Z,26.52
2022-08-22T10:04:44.302Z,26.33
2022-08-22T10:07:55.254Z,26.10
2022-08-22T10:11:42.390Z,26.53
2022-08-22T10:14:22.327Z,27.16
2022-08-22T10:16:59.776Z,27.20
2022-08-22T10:19:38.120Z,27.36
2022-08-22T10:22:18.458Z,27.34
2022-08-22T10:25:16.169Z,27.41
2022-08-22T10:28:10.558Z,27.61
2022-08-22T10:31:20.953Z,27.38
2022-08-22T10:34:03.220Z,27.61
2022-08-22T10:37:00.893Z,27.85
2022-08-22T10:39:50.423Z,27.33
2022-08-22T10:42:31.200Z,27.34
2022-08-22T10:45:35.767Z,27.72
2022-08-22T10:48:08.627Z,27.91
2022-08-22T10:50:48.629Z,28.10
2022-08-22T10:53:42.889Z,27.98
2022-08-22T10:56:34.093Z,27.64
2022-08-22T10:59:44.400Z,28.07
2022-08-22T11:02:29.547Z,27.97
2022-08-22T11:05:14.743Z,27.32
2022-08-22T11:08:43.029Z,27.54
2022-08-22T11:11:19.342Z,27.93
2022-08-22T11:14:32.929Z,28.24
2022-08-22T11:17:30.829Z,28.50
2022-08-22T11:21:11.729Z,28.73
2022-08-22T11:23:45.485Z,28.64
2022-08-22T11:26:47.051Z,28.54
2022-08-22T11:29:38.974Z,28.29
2022-08-22T11:32:17.066Z,28.51
2022-08-22T11:35:11.962Z,28.49
2022-08-22T11:38:05.489Z,28.68
2022-08-22T11:41:24.443Z,28.45
2022-08-22T11:44:03.462Z,28.66
2022-08-22T11:46:41.539Z,28.76
2022-08-22T11:49:55.731Z,28.92
2022-08-22T11:52:52.093Z,29.17
2022-08-22T11:55:39.250Z,29.11
2022-08-22T11:58:30.456Z,29.12
2022-08-22T12:01:21.849Z,28.93
2022-08-22T12:04:09.776Z,29.03
2022-08-22T12:07:00.102Z,28.88
2022-08-22T12:09:58.045Z,29.04
2022-08-22T12:13:08.352Z,29.20
2022-08-22T12:15:53.853Z,29.37
2022-08-22T12:19:00.957Z,29.42
2022-08-22T12:22:09.797Z,29.31
2022-08-22T12:25:05.317Z,29.17
2022-08-22T12:28:24.850Z,29.11
2022-08-22T12:31:40.125Z,29.12
2022-08-22T12:34:44.690Z,28.11
2022-08-22T12:37:24.416Z,28.70
2022-08-22T12:40:22.125Z,28.66
2022-08-22T12:43:23.461Z,28.87
2022-08-22T12:46:28.746Z,29.06
2022-08-22T12:49:01.319Z,29.52
2022-08-22T12:52:22.052Z,29.64
2022-08-22T12:55:10.877Z,29.60
2022-08-22T12:57:57.155Z,29.82
2022-08-22T13:00:40.515Z,29.83
2022-08-22T13:03:18.318Z,29.41
2022-08-22T13:05:57.057Z,29.52
2022-08-22T13:08:33.615Z,29.42
2022-08-22T13:11:22.762Z,29.67
2022-08-22T13:13:57.155Z,29.83
2022-08-22T13:16:34.300Z,30.25
2022-08-22T13:19:14.545Z,30.46
2022-08-22T13:21:48.321Z,30.70
2022-08-22T13:24:39.520Z,31.02
2022-08-22T13:27:50.786Z,30.79
2022-08-22T13:30:26.740Z,30.59
2022-08-22T13:33:03.384Z,30.53
2022-08-22T13:35:52.168Z,30.38
2022-08-22T13:38:39.527Z,30.62
2022-08-22T13:41:31.379Z,31.11
2022-08-22T13:44:06.830Z,30.77
2022-08-22T13:46:48.148Z,30.62
2022-08-22T13:49:47.302Z,30.41
2022-08-22T13:52:38.308Z,29.95
2022-08-22T13:55:27.643Z,30.29
2022-08-22T13:58:24.979Z,30.26
2022-08-22T14:01:09.004Z,30.35
2022-08-22T14:03:48.754Z,30.01
2022-08-22T14:06:37.101Z,30.08
2022-08-22T14:09:54.672Z,30.04
2022-08-22T14:12:33.412Z,30.33
2022-08-22T14:15:05.830Z,29.96
2022-08-22T14:17:44.682Z,30.11
2022-08-22T14:20:32.622Z,29.90
2022-08-22T14:23:11.697Z,29.66
2022-08-22T14:25:41.453Z,29.48
2022-08-22T14:28:35.643Z,29.07
2022-08-22T14:31:13.542Z,29.20
2022-08-22T14:33:47.657Z,29.21
2022-08-22T14:36:29.822Z,29.13
2022-08-22T14:39:07.718Z,29.17
2022-08-22T14:41:56.022Z,29.19
2022-08-22T14:44:31.565Z,29.76
2022-08-22T14:47:08.387Z,30.84
2022-08-22T14:50:09.631Z,31.64
2022-08-22T14:52:48.628Z,31.19
2022-08-22T14:55:23.444Z,32.03
2022-08-22T14:58:00.107Z,32.75
2022-08-22T15:00:38.911Z,32.81
2022-08-22T15:03:25.285Z,32.62
2022-08-22T15:06:05.647Z,32.95
2022-08-22T15:08:49.288Z,33.26
2022-08-22T15:11:21.898Z,33.51
2022-08-22T15:13:51.515Z,32.38
2022-08-22T15:16:25.109Z,31.42
2022-08-22T15:18:52.284Z,30.51
2022-08-22T15:21:26.383Z,30.32
2022-08-22T15:24:04.103Z,30.13
2022-08-22T15:26:40.405Z,30.22
2022-08-22T15:29:22.806Z,29.81
2022-08-22T15:31:51.680Z,29.27
2022-08-22T15:34:35.031Z,29.43
2022-08-22T15:37:17.609Z,30.43
2022-08-22T15:40:08.214Z,30.25
2022-08-22T15:42:42.225Z,29.60
2022-08-22T15:45:33.912Z,29.19
2022-08-22T15:48:04.444Z,28.69
2022-08-22T15:50:58.806Z,28.68
2022-08-22T15:54:24.348Z,28.57
2022-08-22T15:56:53.786Z,28.50
2022-08-22T15:59:47.934Z,28.32
2022-08-22T16:02:37.877Z,28.09
2022-08-22T16:05:10.711Z,27.85
2022-08-22T16:07:57.769Z,27.57
2022-08-22T16:10:24.464Z,27.73
2022-08-22T16:13:11.665Z,27.51
2022-08-22T16:15:56.280Z,27.29
2022-08-22T16:18:49.401Z,27.18
2022-08-22T16:21:39.532Z,27.36
2022-08-22T16:24:06.484Z,27.32
2022-08-22T16:26:44.011Z,26.95
2022-08-22T16:29:13.655Z,26.93
2022-08-22T16:31:44.224Z,26.93
2022-08-22T16:34:17.322Z,26.89
2022-08-22T16:36:55.159Z,26.76
2022-08-22T16:39:24.806Z,26.50
2022-08-22T16:41:56.445Z,26.41
2022-08-22T16:44:29.415Z,26.50
2022-08-22T16:47:13.421Z,26.59
2022-08-22T16:49:52.136Z,26.42
2022-08-22T16:52:24.092Z,26.32
2022-08-22T16:55:30.162Z,26.07
2022-08-22T16:58:40.249Z,25.62
2022-08-22T17:01:51.718Z,25.79
2022-08-22T17:04:43.366Z,25.67
2022-08-22T17:08:11.698Z,25.58
2022-08-22T17:11:02.968Z,25.48
2022-08-22T17:14:32.830Z,25.43
2022-08-22T17:17:36.711Z,25.29
2022-08-22T17:20:23.750Z,25.32
2022-08-22T17:23:01.728Z,25.35
2022-08-22T17:25:56.279Z,25.32
2022-08-22T17:28:40.850Z,25.19
2022-08-22T17:31:27.925Z,25.24
2022-08-22T17:34:26.329Z,25.15
2022-08-22T17:37:21.812Z,25.09
2022-08-22T17:40:15.741Z,24.77
2022-08-22T17:42:54.153Z,24.75
2022-08-22T17:45:59.810Z,24.86
2022-08-22T17:48:41.967Z,24.93
2022-08-22T17:51:28.269Z,24.64
2022-08-22T17:54:29.580Z,24.26
2022-08-22T17:57:31.071Z,23.85
2022-08-22T18:00:19.409Z,23.84
2022-08-22T18:03:13.112Z,23.80
2022-08-22T18:06:04.465Z,23.69
2022-08-22T18:09:12.888Z,23.61
2022-08-22T18:11:31.118Z,23.50
2022-08-22T18:14:19.335Z,23.36
2022-08-22T18:16:49.382Z,23.23
2022-08-22T18:19:34.606Z,23.03
2022-08-22T18:22:39.983Z,22.88
2022-08-22T18:25:25.954Z,22.75
2022-08-22T18:27:57.811Z,22.51
2022-08-22T18:31:05.759Z,22.24
2022-08-22T18:33:49.976Z,22.15
2022-08-22T18:36:35.740Z,22.00
2022-08-22T18:39:25.963Z,21.81
2022-08-22T18:42:18.246Z,21.66
2022-08-22T18:44:45.536Z,21.60
2022-08-22T18:47:28.453Z,21.58
2022-08-22T18:49:56.884Z,21.45
2022-08-22T18:52:26.107Z,21.32
2022-08-22T18:55:13.930Z,21.22
2022-08-22T18:58:16.317Z,21.05
2022-08-22T19:01:19.786Z,20.87
2022-08-22T19:04:42.941Z,20.67
2022-08-22T19:07:30.399Z,20.53
2022-08-22T19:10:39.174Z,20.41
2022-08-22T19:13:25.135Z,20.29
2022-08-22T19:16:32.124Z,20.18
2022-08-22T19:19:17.178Z,19.98
2022-08-22T19:22:19.632Z,19.93
2022-08-22T19:25:27.039Z,19.75
2022-08-22T19:28:11.606Z,19.64
2022-08-22T19:30:47.602Z,19.54
2022-08-22T19:33:39.133Z,19.41
2022-08-22T19:36:12.103Z,19.32
2022-08-22T19:39:04.517Z,19.15
2022-08-22T19:41:49.233Z,19.03
2022-08-22T19:44:19.042Z,18.98
2022-08-22T19:47:06.322Z,18.91
2022-08-22T19:49:44.317Z,18.85
2022-08-22T19:52:32.318Z,18.79
2022-08-22T19:55:17.977Z,18.75
2022-08-22T19:58:16.666Z,18.59
2022-08-22T20:00:59.905Z,18.49
2022-08-22T20:03:57.970Z,18.36
2022-08-22T20:06:45.735Z,18.09
2022-08-22T20:09:54.548Z,18.06
2022-08-22T20:12:50.616Z,18.06
2022-08-22T20:15:26.582Z,18.08
2022-08-22T20:20:59.987Z,17.89
2022-08-22T20:23:30.953Z,17.82
2022-08-22T20:25:58.596Z,17.84
2022-08-22T20:28:49.013Z,17.78
2022-08-22T20:31:26.216Z,17.77
2022-08-22T20:34:01.556Z,17.53
2022-08-22T20:36:29.436Z,17.50
2022-08-22T20:39:11.086Z,17.51
2022-08-22T20:41:43.776Z,17.48
2022-08-22T20:44:21.819Z,17.42
2022-08-22T20:46:53.642Z,17.33
2022-08-22T20:49:38.022Z,17.22
2022-08-22T20:52:12.717Z,17.32
2022-08-22T20:54:41.394Z,17.24
2022-08-22T20:57:21.787Z,17.19
2022-08-22T20:59:55.742Z,17.13
2022-08-22T21:02:35.642Z,16.81
2022-08-22T21:05:21.286Z,16.83
2022-08-22T21:08:06.989Z,16.63
2022-08-22T21:10:56.501Z,16.61
2022-08-22T21:13:26.479Z,16.43
2022-08-22T21:16:02.640Z,16.54
2022-08-22T21:18:39.508Z,16.58
2022-08-22T21:21:17.017Z,16.59
2022-08-22T21:24:01.385Z,16.59
2022-08-22T21:26:38.896Z,16.60
2022-08-22T21:29:14.649Z,16.63
2022-08-22T21:31:44.067Z,16.54
2022-08-22T21:34:19.545Z,16.49
2022-08-22T21:36:48.634Z,16.39
2022-08-22T21:39:26.242Z,16.22
2022-08-22T21:42:23.761Z,16.29
2022-08-22T21:45:10.602Z,16.27
2022-08-22T21:47:41.898Z,16.30
2022-08-22T21:50:26.394Z,16.25
2022-08-22T21:52:55.879Z,16.31
2022-08-22T21:55:48.091Z,16.24
2022-08-22T21:58:32.625Z,16.19
2022-08-22T22:01:30.171Z,16.21
2022-08-22T22:03:59.161Z,16.17
2022-08-22T22:06:26.972Z,15.96
2022-08-22T22:08:53.818Z,15.96
2022-08-22T22:11:20.785Z,15.66
2022-08-22T22:13:47.927Z,15.53
2022-08-22T22:16:24.574Z,15.47
2022-08-22T22:18:51.616Z,15.50
2022-08-22T22:21:18.625Z,15.57
2022-08-22T22:23:45.471Z,15.45
2022-08-22T22:26:13.903Z,15.31
2022-08-22T22:28:47.534Z,15.36
2022-08-22T22:31:16.363Z,15.34
2022-08-22T22:33:43.975Z,15.37
2022-08-22T22:36:22.623Z,15.29
2022-08-22T22:38:51.662Z,15.38
2022-08-22T22:41:20.509Z,15.27
2022-08-22T22:43:47.468Z,15.17
2022-08-22T22:46:14.314Z,15.23
2022-08-22T22:48:41.107Z,15.20
2022-08-22T22:51:12.909Z,15.07
2022-08-22T22:53:43.048Z,15.03
2022-08-22T22:56:15.754Z,15.04
2022-08-22T22:58:43.263Z,14.88
2022-08-22T23:01:21.305Z,14.86
2022-08-22T23:03:53.892Z,14.93
2022-08-22T23:06:24.761Z,14.68
2022-08-22T23:08:51.942Z,14.62
2022-08-22T23:11:26.907Z,14.66
2022-08-22T23:13:55.009Z,14.62
2022-08-22T23:16:27.111Z,14.48
2022-08-22T23:18:55.173Z,14.46
2022-08-22T23:21:29.286Z,14.53
2022-08-22T23:23:58.625Z,14.52
2022-08-22T23:26:26.618Z,14.52
2022-08-22T23:28:54.353Z,14.53
2022-08-22T23:31:46.678Z,14.50
2022-08-22T23:34:16.931Z,14.30
2022-08-22T23:36:46.566Z,14.17
2022-08-22T23:39:15.212Z,14.09
2022-08-22T23:41:43.549Z,14.24
2022-08-22T23:44:13.689Z,14.29
2022-08-22T23:46:42.189Z,14.28
2022-08-22T23:49:09.338Z,14.35
2022-08-22T23:51:36.900Z,14.40
2022-08-22T23:54:05.311Z,14.39
2022-08-22T23:56:36.859Z,14.33
2022-08-22T23:59:09.521Z,14.35
